Airfield :
LOGIN :

Register | Disclaimer

   EN    FR    IT 

 










Legend :    VFR   Marginal VFR   IFR   Intensive IFR   Very Intensive IFR
Visi :
Ceiling :
>= 8 km
>= 3000ft
5 to 8 km
1000 to 3000 ft
1500m to 5 km
500 to 1000 ft
800 to 1500m
200 to 500 ft
< 800m
< 200 ft
Symbols :   Thunderstorms  Fog  Heavy snow  Heavy precipitations  Wind > 20 kt
SIGMETs :     Misc.  Thunderstorms  Icing  Turbulence  Mountain Waves  Volcanic Ashes






- Airport Elevation : 87 ft
- IATA code : AHO


LIEA - Fertilia Alghero

CURRENT METAR :
  • 081650Z 34006KT 300V030 CAVOK 31/15 Q1016

EXPIRED METARs :
  • 081620Z 34007KT 300V010 CAVOK 31/17 Q1016
  • 081550Z 33007KT 290V020 CAVOK 31/18 Q1016
  • 081520Z 32008KT 280V350 CAVOK 31/18 Q1016
  • 081450Z 31009KT 280V340 CAVOK 31/17 Q1016
  • 081420Z 31008KT 270V350 CAVOK 31/17 Q1017

TAF TAF LIEA
Valid from the 08 at 12:00 until the 09 at 12:00 UTC


081100Z 0812/0912 35012KT CAVOK
BECMG 0818/0820 VRB05KT
BECMG 0908/0910 35012KT



MET'MAP, your aeronautical weather chart ! - Copyright ORBIFLY December 2007 - Disclaimer

ORBIFLY MET'MAP TEAM :

Programming & Development : Alexandra Zaïnal
Concept & original design : Baudouin d'Aumeries
Assistance for programming : Marc-Olivier Méhu
Technical & hardware support : Manuel Goepfert

Contact : metmap@orbifly.com




SOURCES & CREDITS :

   NOAA